sensor_id;sensor_type;location;lat;lon;timestamp;P1;durP1;ratioP1;P2;durP2;ratioP2
7519;SDS011;3801;48.876;10.184;2023-05-07T00:02:29;2.37;;;1.80;;
7519;SDS011;3801;48.876;10.184;2023-05-07T00:07:32;2.23;;;1.43;;
7519;SDS011;3801;48.876;10.184;2023-05-07T00:12:36;2.10;;;1.60;;
7519;SDS011;3801;48.876;10.184;2023-05-07T00:17:41;1.77;;;1.53;;
7519;SDS011;3801;48.876;10.184;2023-05-07T00:22:44;2.10;;;1.50;;
7519;SDS011;3801;48.876;10.184;2023-05-07T00:27:48;1.93;;;1.50;;
7519;SDS011;3801;48.876;10.184;2023-05-07T00:32:53;2.13;;;1.60;;
7519;SDS011;3801;48.876;10.184;2023-05-07T00:37:57;2.00;;;1.50;;
7519;SDS011;3801;48.876;10.184;2023-05-07T00:43:00;2.00;;;1.80;;
7519;SDS011;3801;48.876;10.184;2023-05-07T00:48:05;2.00;;;1.73;;
7519;SDS011;3801;48.876;10.184;2023-05-07T00:53:09;1.83;;;1.53;;
7519;SDS011;3801;48.876;10.184;2023-05-07T00:58:12;3.30;;;1.60;;
7519;SDS011;3801;48.876;10.184;2023-05-07T01:03:17;1.87;;;1.60;;
7519;SDS011;3801;48.876;10.184;2023-05-07T01:08:21;3.90;;;1.73;;
7519;SDS011;3801;48.876;10.184;2023-05-07T01:13:27;4.10;;;1.60;;
7519;SDS011;3801;48.876;10.184;2023-05-07T01:18:32;4.73;;;1.90;;
7519;SDS011;3801;48.876;10.184;2023-05-07T01:23:37;2.50;;;1.60;;
7519;SDS011;3801;48.876;10.184;2023-05-07T01:28:41;1.43;;;1.33;;
7519;SDS011;3801;48.876;10.184;2023-05-07T01:33:45;3.50;;;1.87;;
7519;SDS011;3801;48.876;10.184;2023-05-07T01:38:50;2.70;;;1.90;;
7519;SDS011;3801;48.876;10.184;2023-05-07T01:43:54;2.80;;;2.10;;
7519;SDS011;3801;48.876;10.184;2023-05-07T01:48:57;2.43;;;1.93;;
7519;SDS011;3801;48.876;10.184;2023-05-07T01:54:03;3.07;;;1.90;;
7519;SDS011;3801;48.876;10.184;2023-05-07T01:59:07;1.80;;;1.57;;
7519;SDS011;3801;48.876;10.184;2023-05-07T02:04:10;1.93;;;1.70;;
7519;SDS011;3801;48.876;10.184;2023-05-07T02:09:16;3.83;;;1.90;;
7519;SDS011;3801;48.876;10.184;2023-05-07T02:14:22;1.97;;;1.67;;
7519;SDS011;3801;48.876;10.184;2023-05-07T02:19:25;2.07;;;1.63;;
7519;SDS011;3801;48.876;10.184;2023-05-07T02:24:30;1.60;;;1.30;;
7519;SDS011;3801;48.876;10.184;2023-05-07T02:29:33;7.37;;;2.10;;
7519;SDS011;3801;48.876;10.184;2023-05-07T02:34:37;2.10;;;1.90;;
7519;SDS011;3801;48.876;10.184;2023-05-07T02:39:42;2.20;;;1.90;;
7519;SDS011;3801;48.876;10.184;2023-05-07T02:44:45;2.20;;;2.00;;
7519;SDS011;3801;48.876;10.184;2023-05-07T02:49:49;2.43;;;2.00;;
7519;SDS011;3801;48.876;10.184;2023-05-07T02:54:54;2.40;;;2.07;;
7519;SDS011;3801;48.876;10.184;2023-05-07T02:59:58;3.37;;;2.30;;
7519;SDS011;3801;48.876;10.184;2023-05-07T03:05:05;3.33;;;1.93;;
7519;SDS011;3801;48.876;10.184;2023-05-07T03:10:10;1.80;;;1.70;;
7519;SDS011;3801;48.876;10.184;2023-05-07T03:15:14;2.33;;;2.00;;
7519;SDS011;3801;48.876;10.184;2023-05-07T03:20:18;2.53;;;2.10;;
7519;SDS011;3801;48.876;10.184;2023-05-07T03:25:22;4.23;;;2.00;;
7519;SDS011;3801;48.876;10.184;2023-05-07T03:30:26;3.43;;;2.30;;
7519;SDS011;3801;48.876;10.184;2023-05-07T03:35:29;3.00;;;2.60;;
7519;SDS011;3801;48.876;10.184;2023-05-07T03:40:35;3.07;;;2.57;;
7519;SDS011;3801;48.876;10.184;2023-05-07T03:45:39;3.90;;;2.60;;
7519;SDS011;3801;48.876;10.184;2023-05-07T03:50:51;3.30;;;3.00;;
7519;SDS011;3801;48.876;10.184;2023-05-07T03:55:57;3.37;;;3.07;;
7519;SDS011;3801;48.876;10.184;2023-05-07T04:01:02;4.57;;;3.73;;
7519;SDS011;3801;48.876;10.184;2023-05-07T04:06:06;3.87;;;3.07;;
7519;SDS011;3801;48.876;10.184;2023-05-07T04:11:11;3.27;;;2.97;;
7519;SDS011;3801;48.876;10.184;2023-05-07T04:16:14;4.57;;;3.47;;
7519;SDS011;3801;48.876;10.184;2023-05-07T04:21:18;3.27;;;2.80;;
7519;SDS011;3801;48.876;10.184;2023-05-07T04:26:25;3.70;;;2.87;;
7519;SDS011;3801;48.876;10.184;2023-05-07T04:31:30;2.97;;;2.67;;
7519;SDS011;3801;48.876;10.184;2023-05-07T04:36:34;2.87;;;2.57;;
7519;SDS011;3801;48.876;10.184;2023-05-07T04:41:45;2.77;;;2.57;;
7519;SDS011;3801;48.876;10.184;2023-05-07T04:46:48;5.00;;;2.60;;
7519;SDS011;3801;48.876;10.184;2023-05-07T04:51:52;3.07;;;2.20;;
7519;SDS011;3801;48.876;10.184;2023-05-07T04:56:59;2.67;;;2.40;;
7519;SDS011;3801;48.876;10.184;2023-05-07T05:02:02;4.07;;;3.50;;
7519;SDS011;3801;48.876;10.184;2023-05-07T05:07:06;4.27;;;3.47;;
7519;SDS011;3801;48.876;10.184;2023-05-07T05:12:12;5.87;;;3.47;;
7519;SDS011;3801;48.876;10.184;2023-05-07T05:17:15;3.23;;;2.87;;
7519;SDS011;3801;48.876;10.184;2023-05-07T05:22:18;5.13;;;3.10;;
7519;SDS011;3801;48.876;10.184;2023-05-07T05:27:24;3.27;;;2.93;;
7519;SDS011;3801;48.876;10.184;2023-05-07T05:32:28;3.57;;;3.13;;
7519;SDS011;3801;48.876;10.184;2023-05-07T05:37:32;4.77;;;3.30;;
7519;SDS011;3801;48.876;10.184;2023-05-07T05:42:39;2.77;;;2.57;;
7519;SDS011;3801;48.876;10.184;2023-05-07T05:47:44;3.53;;;3.23;;
7519;SDS011;3801;48.876;10.184;2023-05-07T05:52:48;2.63;;;2.03;;
7519;SDS011;3801;48.876;10.184;2023-05-07T05:57:55;2.33;;;2.13;;
7519;SDS011;3801;48.876;10.184;2023-05-07T06:03:00;4.97;;;2.63;;
7519;SDS011;3801;48.876;10.184;2023-05-07T06:08:04;2.50;;;2.30;;
7519;SDS011;3801;48.876;10.184;2023-05-07T06:13:10;4.33;;;2.73;;
7519;SDS011;3801;48.876;10.184;2023-05-07T06:18:15;3.37;;;2.63;;
7519;SDS011;3801;48.876;10.184;2023-05-07T06:23:19;4.20;;;2.53;;
7519;SDS011;3801;48.876;10.184;2023-05-07T06:28:24;3.73;;;2.60;;
7519;SDS011;3801;48.876;10.184;2023-05-07T06:33:28;2.50;;;2.30;;
7519;SDS011;3801;48.876;10.184;2023-05-07T06:38:31;2.57;;;2.20;;
7519;SDS011;3801;48.876;10.184;2023-05-07T06:43:36;2.23;;;2.03;;
7519;SDS011;3801;48.876;10.184;2023-05-07T06:49:07;2.83;;;2.00;;
7519;SDS011;3801;48.876;10.184;2023-05-07T06:54:12;4.97;;;2.53;;
7519;SDS011;3801;48.876;10.184;2023-05-07T06:59:26;3.93;;;2.30;;
7519;SDS011;3801;48.876;10.184;2023-05-07T07:04:30;4.37;;;2.67;;
7519;SDS011;3801;48.876;10.184;2023-05-07T07:09:39;3.33;;;2.30;;
7519;SDS011;3801;48.876;10.184;2023-05-07T07:14:45;2.30;;;2.10;;
7519;SDS011;3801;48.876;10.184;2023-05-07T07:19:49;2.47;;;2.10;;
7519;SDS011;3801;48.876;10.184;2023-05-07T07:24:52;2.90;;;2.00;;
7519;SDS011;3801;48.876;10.184;2023-05-07T07:29:59;3.13;;;2.07;;
7519;SDS011;3801;48.876;10.184;2023-05-07T07:35:06;5.07;;;2.43;;
7519;SDS011;3801;48.876;10.184;2023-05-07T07:40:11;3.10;;;2.37;;
7519;SDS011;3801;48.876;10.184;2023-05-07T07:45:17;2.92;;;2.10;;
7519;SDS011;3801;48.876;10.184;2023-05-07T07:50:22;2.38;;;2.10;;
7519;SDS011;3801;48.876;10.184;2023-05-07T07:55:44;3.60;;;2.40;;
7519;SDS011;3801;48.876;10.184;2023-05-07T08:00:52;2.70;;;2.40;;
7519;SDS011;3801;48.876;10.184;2023-05-07T08:05:59;2.80;;;2.25;;
7519;SDS011;3801;48.876;10.184;2023-05-07T08:11:03;2.22;;;1.90;;
7519;SDS011;3801;48.876;10.184;2023-05-07T08:16:13;1.77;;;1.67;;
7519;SDS011;3801;48.876;10.184;2023-05-07T08:21:17;3.45;;;2.28;;
7519;SDS011;3801;48.876;10.184;2023-05-07T08:26:21;4.30;;;2.10;;
7519;SDS011;3801;48.876;10.184;2023-05-07T08:31:25;3.10;;;2.80;;
7519;SDS011;3801;48.876;10.184;2023-05-07T08:36:29;2.15;;;1.98;;
7519;SDS011;3801;48.876;10.184;2023-05-07T08:41:34;2.83;;;1.90;;
7519;SDS011;3801;48.876;10.184;2023-05-07T08:46:39;1.85;;;1.75;;
7519;SDS011;3801;48.876;10.184;2023-05-07T08:51:43;4.28;;;1.63;;
7519;SDS011;3801;48.876;10.184;2023-05-07T08:56:48;2.95;;;1.45;;
7519;SDS011;3801;48.876;10.184;2023-05-07T09:01:58;1.30;;;1.13;;
7519;SDS011;3801;48.876;10.184;2023-05-07T09:07:11;1.50;;;1.40;;
7519;SDS011;3801;48.876;10.184;2023-05-07T09:12:17;2.75;;;1.98;;
7519;SDS011;3801;48.876;10.184;2023-05-07T09:17:22;1.70;;;1.60;;
7519;SDS011;3801;48.876;10.184;2023-05-07T09:22:26;1.50;;;1.40;;
7519;SDS011;3801;48.876;10.184;2023-05-07T09:27:35;1.90;;;1.75;;
7519;SDS011;3801;48.876;10.184;2023-05-07T09:32:40;3.17;;;1.70;;
7519;SDS011;3801;48.876;10.184;2023-05-07T09:37:50;2.72;;;2.13;;
7519;SDS011;3801;48.876;10.184;2023-05-07T09:42:54;2.25;;;1.40;;
7519;SDS011;3801;48.876;10.184;2023-05-07T09:48:00;1.98;;;1.58;;
7519;SDS011;3801;48.876;10.184;2023-05-07T09:53:05;2.53;;;1.85;;
7519;SDS011;3801;48.876;10.184;2023-05-07T09:58:09;1.95;;;1.75;;
7519;SDS011;3801;48.876;10.184;2023-05-07T10:03:17;3.05;;;1.95;;
7519;SDS011;3801;48.876;10.184;2023-05-07T10:08:28;3.10;;;1.98;;
7519;SDS011;3801;48.876;10.184;2023-05-07T10:13:35;2.20;;;2.00;;
7519;SDS011;3801;48.876;10.184;2023-05-07T10:18:44;2.28;;;1.77;;
7519;SDS011;3801;48.876;10.184;2023-05-07T10:23:53;1.80;;;1.70;;
7519;SDS011;3801;48.876;10.184;2023-05-07T10:29:02;2.15;;;1.95;;
7519;SDS011;3801;48.876;10.184;2023-05-07T10:34:09;2.33;;;1.80;;
7519;SDS011;3801;48.876;10.184;2023-05-07T10:39:14;3.15;;;2.28;;
7519;SDS011;3801;48.876;10.184;2023-05-07T10:44:27;3.50;;;2.92;;
7519;SDS011;3801;48.876;10.184;2023-05-07T10:49:38;2.30;;;2.05;;
7519;SDS011;3801;48.876;10.184;2023-05-07T10:55:21;2.20;;;2.00;;
7519;SDS011;3801;48.876;10.184;2023-05-07T11:00:47;2.35;;;1.85;;
7519;SDS011;3801;48.876;10.184;2023-05-07T11:06:09;1.77;;;1.67;;
7519;SDS011;3801;48.876;10.184;2023-05-07T11:11:46;2.10;;;1.90;;
7519;SDS011;3801;48.876;10.184;2023-05-07T11:17:02;3.40;;;1.90;;
7519;SDS011;3801;48.876;10.184;2023-05-07T11:22:15;2.58;;;1.77;;
7519;SDS011;3801;48.876;10.184;2023-05-07T11:28:05;2.20;;;1.63;;
7519;SDS011;3801;48.876;10.184;2023-05-07T11:33:09;2.08;;;1.88;;
7519;SDS011;3801;48.876;10.184;2023-05-07T11:38:16;2.17;;;1.98;;
7519;SDS011;3801;48.876;10.184;2023-05-07T11:43:20;4.80;;;2.20;;
7519;SDS011;3801;48.876;10.184;2023-05-07T11:48:23;2.63;;;2.15;;
7519;SDS011;3801;48.876;10.184;2023-05-07T11:53:35;2.08;;;1.73;;
7519;SDS011;3801;48.876;10.184;2023-05-07T11:58:39;1.90;;;1.80;;
7519;SDS011;3801;48.876;10.184;2023-05-07T12:03:43;2.10;;;1.92;;
7519;SDS011;3801;48.876;10.184;2023-05-07T12:08:49;4.65;;;2.00;;
7519;SDS011;3801;48.876;10.184;2023-05-07T12:13:53;1.65;;;1.55;;
7519;SDS011;3801;48.876;10.184;2023-05-07T12:19:00;2.20;;;1.80;;
7519;SDS011;3801;48.876;10.184;2023-05-07T12:24:06;2.08;;;1.75;;
7519;SDS011;3801;48.876;10.184;2023-05-07T12:29:11;1.67;;;1.58;;
7519;SDS011;3801;48.876;10.184;2023-05-07T12:34:16;2.22;;;1.85;;
7519;SDS011;3801;48.876;10.184;2023-05-07T12:39:22;2.47;;;2.05;;
7519;SDS011;3801;48.876;10.184;2023-05-07T12:44:28;2.15;;;1.70;;
7519;SDS011;3801;48.876;10.184;2023-05-07T12:49:33;2.03;;;1.83;;
7519;SDS011;3801;48.876;10.184;2023-05-07T12:54:41;3.58;;;2.30;;
7519;SDS011;3801;48.876;10.184;2023-05-07T12:59:44;2.20;;;2.00;;
7519;SDS011;3801;48.876;10.184;2023-05-07T13:04:48;6.30;;;2.30;;
7519;SDS011;3801;48.876;10.184;2023-05-07T13:09:54;2.00;;;1.80;;
7519;SDS011;3801;48.876;10.184;2023-05-07T13:14:59;2.20;;;2.00;;
7519;SDS011;3801;48.876;10.184;2023-05-07T13:20:05;1.90;;;1.80;;
7519;SDS011;3801;48.876;10.184;2023-05-07T13:25:12;3.08;;;1.80;;
7519;SDS011;3801;48.876;10.184;2023-05-07T13:30:16;2.80;;;1.90;;
7519;SDS011;3801;48.876;10.184;2023-05-07T13:35:22;2.22;;;2.00;;
7519;SDS011;3801;48.876;10.184;2023-05-07T13:40:30;2.25;;;2.00;;
7519;SDS011;3801;48.876;10.184;2023-05-07T13:45:39;2.00;;;1.80;;
7519;SDS011;3801;48.876;10.184;2023-05-07T13:50:43;3.78;;;2.08;;
7519;SDS011;3801;48.876;10.184;2023-05-07T13:55:48;3.47;;;2.13;;
7519;SDS011;3801;48.876;10.184;2023-05-07T14:00:53;2.03;;;1.83;;
7519;SDS011;3801;48.876;10.184;2023-05-07T14:06:00;2.65;;;2.05;;
7519;SDS011;3801;48.876;10.184;2023-05-07T14:11:06;2.78;;;2.53;;
7519;SDS011;3801;48.876;10.184;2023-05-07T14:16:10;1.80;;;1.70;;
7519;SDS011;3801;48.876;10.184;2023-05-07T14:21:16;2.65;;;2.30;;
7519;SDS011;3801;48.876;10.184;2023-05-07T14:26:21;2.72;;;2.20;;
7519;SDS011;3801;48.876;10.184;2023-05-07T14:36:48;4.78;;;1.73;;
7519;SDS011;3801;48.876;10.184;2023-05-07T14:41:53;4.20;;;2.00;;
7519;SDS011;3801;48.876;10.184;2023-05-07T14:46:58;2.03;;;1.83;;
7519;SDS011;3801;48.876;10.184;2023-05-07T14:52:03;3.15;;;2.53;;
7519;SDS011;3801;48.876;10.184;2023-05-07T14:57:10;3.83;;;2.20;;
7519;SDS011;3801;48.876;10.184;2023-05-07T15:02:15;3.30;;;1.88;;
7519;SDS011;3801;48.876;10.184;2023-05-07T15:07:22;2.60;;;2.40;;
7519;SDS011;3801;48.876;10.184;2023-05-07T15:12:27;2.40;;;2.17;;
7519;SDS011;3801;48.876;10.184;2023-05-07T15:17:30;3.15;;;2.53;;
7519;SDS011;3801;48.876;10.184;2023-05-07T15:22:34;3.25;;;2.70;;
7519;SDS011;3801;48.876;10.184;2023-05-07T15:27:40;2.60;;;2.40;;
7519;SDS011;3801;48.876;10.184;2023-05-07T15:32:43;3.10;;;2.55;;
7519;SDS011;3801;48.876;10.184;2023-05-07T15:37:47;2.50;;;2.30;;
7519;SDS011;3801;48.876;10.184;2023-05-07T15:42:54;4.77;;;3.70;;
7519;SDS011;3801;48.876;10.184;2023-05-07T15:47:58;2.58;;;2.25;;
7519;SDS011;3801;48.876;10.184;2023-05-07T15:53:01;2.53;;;2.30;;
7519;SDS011;3801;48.876;10.184;2023-05-07T15:58:06;2.30;;;2.10;;
7519;SDS011;3801;48.876;10.184;2023-05-07T16:03:09;2.17;;;2.00;;
7519;SDS011;3801;48.876;10.184;2023-05-07T16:08:13;2.70;;;2.47;;
7519;SDS011;3801;48.876;10.184;2023-05-07T16:13:18;4.13;;;2.38;;
7519;SDS011;3801;48.876;10.184;2023-05-07T16:18:22;2.90;;;2.60;;
7519;SDS011;3801;48.876;10.184;2023-05-07T16:23:25;2.50;;;2.30;;
7519;SDS011;3801;48.876;10.184;2023-05-07T16:28:30;2.63;;;2.10;;
7519;SDS011;3801;48.876;10.184;2023-05-07T16:33:34;2.00;;;1.80;;
7519;SDS011;3801;48.876;10.184;2023-05-07T16:38:37;3.67;;;2.10;;
7519;SDS011;3801;48.876;10.184;2023-05-07T16:43:42;1.70;;;1.60;;
7519;SDS011;3801;48.876;10.184;2023-05-07T16:48:45;3.13;;;1.70;;
7519;SDS011;3801;48.876;10.184;2023-05-07T16:53:49;2.90;;;2.10;;
7519;SDS011;3801;48.876;10.184;2023-05-07T16:58:54;2.63;;;1.80;;
7519;SDS011;3801;48.876;10.184;2023-05-07T17:03:58;2.23;;;1.90;;
7519;SDS011;3801;48.876;10.184;2023-05-07T17:09:01;3.37;;;2.27;;
7519;SDS011;3801;48.876;10.184;2023-05-07T17:14:06;1.87;;;1.77;;
7519;SDS011;3801;48.876;10.184;2023-05-07T17:19:10;2.30;;;1.90;;
7519;SDS011;3801;48.876;10.184;2023-05-07T17:24:14;3.70;;;1.97;;
7519;SDS011;3801;48.876;10.184;2023-05-07T17:29:18;4.43;;;2.57;;
7519;SDS011;3801;48.876;10.184;2023-05-07T17:34:22;2.50;;;2.30;;
7519;SDS011;3801;48.876;10.184;2023-05-07T17:39:26;2.37;;;1.90;;
7519;SDS011;3801;48.876;10.184;2023-05-07T17:44:30;2.47;;;2.20;;
7519;SDS011;3801;48.876;10.184;2023-05-07T17:49:34;3.77;;;1.90;;
7519;SDS011;3801;48.876;10.184;2023-05-07T17:54:38;1.77;;;1.50;;
7519;SDS011;3801;48.876;10.184;2023-05-07T17:59:43;2.83;;;1.57;;
7519;SDS011;3801;48.876;10.184;2023-05-07T18:04:46;3.43;;;1.63;;
7519;SDS011;3801;48.876;10.184;2023-05-07T18:09:50;3.60;;;1.67;;
7519;SDS011;3801;48.876;10.184;2023-05-07T18:14:54;2.20;;;1.67;;
7519;SDS011;3801;48.876;10.184;2023-05-07T18:19:58;2.07;;;1.83;;
7519;SDS011;3801;48.876;10.184;2023-05-07T18:25:01;3.83;;;2.07;;
7519;SDS011;3801;48.876;10.184;2023-05-07T18:30:07;3.60;;;2.13;;
7519;SDS011;3801;48.876;10.184;2023-05-07T18:35:11;3.17;;;2.67;;
7519;SDS011;3801;48.876;10.184;2023-05-07T18:40:15;4.67;;;2.70;;
7519;SDS011;3801;48.876;10.184;2023-05-07T18:45:19;3.33;;;2.40;;
7519;SDS011;3801;48.876;10.184;2023-05-07T18:50:23;4.40;;;2.80;;
7519;SDS011;3801;48.876;10.184;2023-05-07T18:55:26;4.70;;;3.00;;
7519;SDS011;3801;48.876;10.184;2023-05-07T19:00:31;2.80;;;2.50;;
7519;SDS011;3801;48.876;10.184;2023-05-07T19:05:34;3.27;;;2.73;;
7519;SDS011;3801;48.876;10.184;2023-05-07T19:10:37;5.17;;;2.63;;
7519;SDS011;3801;48.876;10.184;2023-05-07T19:15:42;3.67;;;2.80;;
7519;SDS011;3801;48.876;10.184;2023-05-07T19:20:45;5.73;;;2.80;;
7519;SDS011;3801;48.876;10.184;2023-05-07T19:25:50;3.23;;;2.80;;
7519;SDS011;3801;48.876;10.184;2023-05-07T19:30:55;5.57;;;2.67;;
7519;SDS011;3801;48.876;10.184;2023-05-07T19:35:59;3.37;;;2.70;;
7519;SDS011;3801;48.876;10.184;2023-05-07T19:41:03;4.27;;;2.33;;
7519;SDS011;3801;48.876;10.184;2023-05-07T19:46:08;4.03;;;2.27;;
7519;SDS011;3801;48.876;10.184;2023-05-07T19:51:12;2.93;;;2.33;;
7519;SDS011;3801;48.876;10.184;2023-05-07T19:56:15;3.40;;;3.07;;
7519;SDS011;3801;48.876;10.184;2023-05-07T20:01:20;4.30;;;3.10;;
7519;SDS011;3801;48.876;10.184;2023-05-07T20:06:23;4.67;;;2.90;;
7519;SDS011;3801;48.876;10.184;2023-05-07T20:11:27;4.23;;;2.97;;
7519;SDS011;3801;48.876;10.184;2023-05-07T20:16:32;3.87;;;3.17;;
7519;SDS011;3801;48.876;10.184;2023-05-07T20:21:36;3.10;;;2.80;;
7519;SDS011;3801;48.876;10.184;2023-05-07T20:26:39;5.13;;;3.07;;
7519;SDS011;3801;48.876;10.184;2023-05-07T20:31:44;3.50;;;3.07;;
7519;SDS011;3801;48.876;10.184;2023-05-07T20:36:48;4.03;;;3.20;;
7519;SDS011;3801;48.876;10.184;2023-05-07T20:41:51;4.03;;;3.40;;
7519;SDS011;3801;48.876;10.184;2023-05-07T20:46:56;3.70;;;3.30;;
7519;SDS011;3801;48.876;10.184;2023-05-07T20:52:00;4.53;;;3.30;;
7519;SDS011;3801;48.876;10.184;2023-05-07T20:57:03;4.03;;;3.03;;
7519;SDS011;3801;48.876;10.184;2023-05-07T21:02:08;4.17;;;3.03;;
7519;SDS011;3801;48.876;10.184;2023-05-07T21:07:12;3.63;;;2.90;;
7519;SDS011;3801;48.876;10.184;2023-05-07T21:12:15;3.80;;;2.80;;
7519;SDS011;3801;48.876;10.184;2023-05-07T21:17:20;4.03;;;2.70;;
7519;SDS011;3801;48.876;10.184;2023-05-07T21:22:23;3.90;;;2.90;;
7519;SDS011;3801;48.876;10.184;2023-05-07T21:27:27;2.83;;;2.50;;
7519;SDS011;3801;48.876;10.184;2023-05-07T21:32:32;4.20;;;2.97;;
7519;SDS011;3801;48.876;10.184;2023-05-07T21:37:35;3.80;;;3.40;;
7519;SDS011;3801;48.876;10.184;2023-05-07T21:42:39;3.37;;;3.07;;
7519;SDS011;3801;48.876;10.184;2023-05-07T21:47:44;3.40;;;3.00;;
7519;SDS011;3801;48.876;10.184;2023-05-07T21:52:47;3.40;;;3.00;;
7519;SDS011;3801;48.876;10.184;2023-05-07T21:57:51;3.43;;;3.13;;
7519;SDS011;3801;48.876;10.184;2023-05-07T22:03:08;4.53;;;4.10;;
7519;SDS011;3801;48.876;10.184;2023-05-07T22:08:11;5.27;;;3.63;;
7519;SDS011;3801;48.876;10.184;2023-05-07T22:13:15;5.60;;;3.87;;
7519;SDS011;3801;48.876;10.184;2023-05-07T22:18:21;4.70;;;4.07;;
7519;SDS011;3801;48.876;10.184;2023-05-07T22:23:25;5.47;;;4.03;;
7519;SDS011;3801;48.876;10.184;2023-05-07T22:28:30;6.97;;;4.83;;
7519;SDS011;3801;48.876;10.184;2023-05-07T22:33:36;4.77;;;4.00;;
7519;SDS011;3801;48.876;10.184;2023-05-07T22:38:40;6.60;;;4.93;;
7519;SDS011;3801;48.876;10.184;2023-05-07T22:43:45;7.33;;;5.07;;
7519;SDS011;3801;48.876;10.184;2023-05-07T22:48:51;4.53;;;3.40;;
7519;SDS011;3801;48.876;10.184;2023-05-07T22:53:56;5.03;;;3.20;;
7519;SDS011;3801;48.876;10.184;2023-05-07T22:59:05;4.87;;;3.87;;
7519;SDS011;3801;48.876;10.184;2023-05-07T23:04:13;3.97;;;3.20;;
7519;SDS011;3801;48.876;10.184;2023-05-07T23:09:21;4.03;;;3.50;;
7519;SDS011;3801;48.876;10.184;2023-05-07T23:14:27;4.50;;;3.50;;
7519;SDS011;3801;48.876;10.184;2023-05-07T23:19:36;4.30;;;3.90;;
7519;SDS011;3801;48.876;10.184;2023-05-07T23:24:48;6.83;;;3.90;;
7519;SDS011;3801;48.876;10.184;2023-05-07T23:29:55;4.63;;;3.63;;
7519;SDS011;3801;48.876;10.184;2023-05-07T23:35:10;5.87;;;4.40;;
7519;SDS011;3801;48.876;10.184;2023-05-07T23:40:15;6.33;;;4.90;;
7519;SDS011;3801;48.876;10.184;2023-05-07T23:45:24;9.13;;;5.40;;
7519;SDS011;3801;48.876;10.184;2023-05-07T23:50:30;6.37;;;5.40;;
7519;SDS011;3801;48.876;10.184;2023-05-07T23:55:37;6.50;;;5.77;;
